createdAt,value
2017-02-18T00:00:15.982Z,0
2017-02-18T00:01:16.040Z,0
2017-02-18T00:02:16.021Z,0
2017-02-18T00:03:15.659Z,0
2017-02-18T00:04:16.060Z,0
2017-02-18T00:05:15.668Z,0
2017-02-18T00:06:15.788Z,0
2017-02-18T00:07:15.686Z,0
2017-02-18T00:08:15.796Z,0
2017-02-18T00:09:15.817Z,0
2017-02-18T00:10:16.128Z,0
2017-02-18T00:11:16.169Z,0
2017-02-18T00:12:15.376Z,0
2017-02-18T00:13:15.867Z,0
2017-02-18T00:14:16.191Z,0
2017-02-18T00:15:16.214Z,0
2017-02-18T00:16:16.231Z,0
2017-02-18T00:17:15.856Z,0
2017-02-18T00:18:16.271Z,0
2017-02-18T00:19:16.264Z,0
2017-02-18T00:20:15.906Z,0
2017-02-18T00:21:16.301Z,0
2017-02-18T00:22:16.323Z,0
2017-02-18T00:23:16.341Z,0
2017-02-18T00:24:16.349Z,0
2017-02-18T00:25:16.355Z,0
2017-02-18T00:26:16.379Z,0
2017-02-18T00:27:16.457Z,0
2017-02-18T00:28:16.461Z,0
2017-02-18T00:29:16.466Z,0
2017-02-18T00:30:16.476Z,0
2017-02-18T00:31:16.489Z,0
2017-02-18T00:32:16.045Z,0
2017-02-18T00:33:16.495Z,0
2017-02-18T00:34:16.551Z,0
2017-02-18T00:35:16.098Z,0
2017-02-18T00:36:16.526Z,0
2017-02-18T00:37:16.528Z,0
2017-02-18T00:38:16.146Z,0
2017-02-18T00:39:16.144Z,0
2017-02-18T00:40:16.603Z,0
2017-02-18T00:41:16.613Z,0
2017-02-18T00:42:16.191Z,0
2017-02-18T00:43:16.631Z,0
2017-02-18T00:44:16.629Z,0
2017-02-18T00:45:16.640Z,0
2017-02-18T00:46:16.648Z,0
2017-02-18T00:47:16.271Z,0
2017-02-18T00:48:16.256Z,0
2017-02-18T00:49:16.292Z,0
2017-02-18T00:50:16.784Z,0
2017-02-18T00:51:16.319Z,0
2017-02-18T00:52:16.801Z,0
2017-02-18T00:53:16.426Z,0
2017-02-18T00:54:16.434Z,0
2017-02-18T00:55:16.778Z,0
2017-02-18T00:56:16.445Z,0
2017-02-18T00:57:16.790Z,0
2017-02-18T00:58:16.832Z,0
2017-02-18T00:59:16.843Z,0
2017-02-18T01:00:16.838Z,0
2017-02-18T01:01:16.840Z,0
2017-02-18T01:02:16.878Z,0
2017-02-18T01:03:16.496Z,0
2017-02-18T01:04:16.893Z,0
2017-02-18T01:05:16.926Z,0
2017-02-18T01:06:16.571Z,0
2017-02-18T01:07:17.009Z,0
2017-02-18T01:08:16.969Z,0
2017-02-18T01:09:16.984Z,0
2017-02-18T01:10:16.994Z,0
2017-02-18T01:11:17.010Z,0
2017-02-18T01:12:17.004Z,0
2017-02-18T01:13:16.735Z,0
2017-02-18T01:14:16.743Z,0
2017-02-18T01:15:16.684Z,0
2017-02-18T01:16:16.761Z,0
2017-02-18T01:17:17.098Z,0
2017-02-18T01:18:16.719Z,0
2017-02-18T01:19:17.108Z,0
2017-02-18T01:20:16.741Z,0
2017-02-18T01:21:48.899Z,0
2017-02-18T01:22:17.174Z,0
2017-02-18T01:23:17.268Z,0
2017-02-18T01:24:17.225Z,0
2017-02-18T01:25:17.209Z,0
2017-02-18T01:26:17.205Z,0
2017-02-18T01:27:17.248Z,0
2017-02-18T01:28:16.463Z,0
2017-02-18T01:29:17.269Z,0
2017-02-18T01:30:17.285Z,0
2017-02-18T01:31:17.298Z,0
2017-02-18T01:32:17.295Z,0
2017-02-18T01:33:17.320Z,0
2017-02-18T01:34:17.327Z,0
2017-02-18T01:35:16.984Z,0
2017-02-18T01:36:17.376Z,0
2017-02-18T01:37:17.339Z,0
2017-02-18T01:38:17.362Z,0
2017-02-18T01:39:17.419Z,0
2017-02-18T01:40:17.402Z,0
2017-02-18T01:41:17.467Z,0
2017-02-18T01:42:17.474Z,0
2017-02-18T01:43:17.452Z,0
2017-02-18T01:44:17.492Z,0
2017-02-18T01:45:17.472Z,0
2017-02-18T01:46:17.095Z,0
2017-02-18T01:47:17.511Z,0
2017-02-18T01:48:17.505Z,0
2017-02-18T01:49:17.170Z,0
2017-02-18T01:50:17.559Z,0
2017-02-18T01:51:17.559Z,0
2017-02-18T01:52:17.198Z,0
2017-02-18T01:53:17.586Z,0
2017-02-18T01:54:17.598Z,0
2017-02-18T01:55:17.228Z,0
2017-02-18T01:56:17.252Z,0
2017-02-18T01:57:17.673Z,0
2017-02-18T01:58:17.672Z,0
2017-02-18T01:59:17.281Z,0
2017-02-18T02:00:17.290Z,0
2017-02-18T02:01:17.721Z,0
2017-02-18T02:02:17.315Z,0
2017-02-18T02:03:17.722Z,0
2017-02-18T02:04:17.743Z,0
2017-02-18T02:05:17.754Z,0
2017-02-18T02:06:17.415Z,0
2017-02-18T02:07:17.871Z,0
2017-02-18T02:08:17.821Z,0
2017-02-18T02:09:17.498Z,0
2017-02-18T02:10:17.500Z,0
2017-02-18T02:11:17.507Z,0
2017-02-18T02:12:17.892Z,0
2017-02-18T02:13:17.516Z,0
2017-02-18T02:14:17.990Z,0
2017-02-18T02:15:17.534Z,0
2017-02-18T02:16:17.880Z,0
2017-02-18T02:17:17.540Z,0
2017-02-18T02:18:17.943Z,0
2017-02-18T02:19:17.969Z,0
2017-02-18T02:20:17.966Z,0
2017-02-18T02:21:17.976Z,0
2017-02-18T02:22:18.102Z,0
2017-02-18T02:23:17.697Z,0
2017-02-18T02:24:17.641Z,0
2017-02-18T02:25:18.044Z,0
2017-02-18T02:26:17.669Z,0
2017-02-18T02:27:18.045Z,0
2017-02-18T02:28:18.080Z,0
2017-02-18T02:29:18.194Z,0
2017-02-18T02:30:17.356Z,0
2017-02-18T02:31:17.719Z,0
2017-02-18T02:32:17.726Z,0
2017-02-18T02:33:17.768Z,0
2017-02-18T02:34:17.847Z,0
2017-02-18T02:35:18.188Z,0
2017-02-18T02:36:18.201Z,0
2017-02-18T02:37:18.224Z,0
2017-02-18T02:38:18.221Z,0
2017-02-18T02:39:18.258Z,0
2017-02-18T02:40:17.845Z,0
2017-02-18T02:41:18.289Z,0
2017-02-18T02:42:18.268Z,0
2017-02-18T02:43:18.305Z,0
2017-02-18T02:44:18.337Z,0
2017-02-18T02:45:18.342Z,0
2017-02-18T02:46:18.337Z,0
2017-02-18T02:47:18.358Z,0
2017-02-18T02:48:18.376Z,0
2017-02-18T02:49:18.356Z,0
2017-02-18T02:50:18.410Z,0
2017-02-18T02:51:18.035Z,0
2017-02-18T02:52:18.481Z,0
2017-02-18T02:53:18.444Z,0
2017-02-18T02:54:18.052Z,0
2017-02-18T02:55:18.529Z,0
2017-02-18T02:56:18.463Z,0
2017-02-18T02:57:18.496Z,0
2017-02-18T02:58:18.529Z,0
2017-02-18T02:59:18.131Z,0
2017-02-18T03:00:18.136Z,0
2017-02-18T03:01:18.536Z,0
2017-02-18T03:02:18.188Z,0
2017-02-18T03:03:18.602Z,0
2017-02-18T03:04:18.604Z,0
2017-02-18T03:05:18.629Z,0
2017-02-18T03:06:18.607Z,0
2017-02-18T03:07:18.657Z,0
2017-02-18T03:08:18.641Z,0
2017-02-18T03:09:18.653Z,0
2017-02-18T03:10:18.290Z,0
2017-02-18T03:11:18.719Z,0
2017-02-18T03:12:18.290Z,0
2017-02-18T03:13:18.754Z,0
2017-02-18T03:14:18.741Z,0
2017-02-18T03:15:18.363Z,0
2017-02-18T03:16:18.354Z,0
2017-02-18T03:17:18.777Z,0
2017-02-18T03:18:18.423Z,0
2017-02-18T03:19:18.395Z,0
2017-02-18T03:20:18.427Z,0
2017-02-18T03:21:18.814Z,0
2017-02-18T03:22:18.441Z,0
2017-02-18T03:23:18.065Z,0
2017-02-18T03:24:18.890Z,0
2017-02-18T03:25:18.893Z,0
2017-02-18T03:26:18.505Z,0
2017-02-18T03:27:18.139Z,0
2017-02-18T03:28:18.922Z,0
2017-02-18T03:29:18.939Z,0
2017-02-18T03:30:18.567Z,0
2017-02-18T03:31:18.561Z,0
2017-02-18T03:32:18.592Z,0
2017-02-18T03:33:18.982Z,0
2017-02-18T03:34:19.021Z,0
2017-02-18T03:35:19.047Z,0
2017-02-18T03:36:19.053Z,0
2017-02-18T03:37:19.070Z,0
2017-02-18T03:38:18.659Z,0
2017-02-18T03:39:19.092Z,0
2017-02-18T03:40:19.095Z,0
2017-02-18T03:41:18.706Z,0
2017-02-18T03:42:18.760Z,0
2017-02-18T03:43:19.157Z,0
2017-02-18T03:44:19.149Z,0
2017-02-18T03:45:18.749Z,0
2017-02-18T03:46:19.307Z,0
2017-02-18T03:47:19.309Z,0
2017-02-18T03:48:19.194Z,0
2017-02-18T03:49:18.810Z,0
2017-02-18T03:50:19.360Z,0
2017-02-18T03:51:19.338Z,0
2017-02-18T03:52:18.861Z,0
2017-02-18T03:53:19.382Z,0
2017-02-18T03:54:19.386Z,0
2017-02-18T03:55:19.293Z,0
2017-02-18T03:56:18.931Z,0
2017-02-18T03:57:18.927Z,0
2017-02-18T03:58:19.455Z,0
2017-02-18T03:59:19.472Z,0
2017-02-18T04:00:19.471Z,0
2017-02-18T04:01:19.495Z,0
2017-02-18T04:02:19.495Z,0
2017-02-18T04:03:19.516Z,0
2017-02-18T04:04:19.523Z,0
2017-02-18T04:05:19.517Z,0
2017-02-18T04:06:19.527Z,0
2017-02-18T04:07:19.548Z,0
2017-02-18T04:08:19.560Z,0
2017-02-18T04:09:19.582Z,0
2017-02-18T04:10:19.574Z,0
2017-02-18T04:11:19.124Z,0
2017-02-18T04:12:19.642Z,0
2017-02-18T04:13:19.640Z,0
2017-02-18T04:14:19.643Z,0
2017-02-18T04:15:19.192Z,0
2017-02-18T04:16:19.670Z,0
2017-02-18T04:17:19.267Z,0
2017-02-18T04:18:19.273Z,0
2017-02-18T04:19:19.818Z,0
2017-02-18T04:20:19.820Z,0
2017-02-18T04:21:19.818Z,0
2017-02-18T04:22:19.881Z,0
2017-02-18T04:23:19.790Z,0
2017-02-18T04:24:19.399Z,0
2017-02-18T04:25:19.803Z,0
2017-02-18T04:26:19.950Z,0
2017-02-18T04:27:19.818Z,0
2017-02-18T04:28:19.946Z,0
2017-02-18T04:29:19.834Z,0
2017-02-18T04:30:19.454Z,0
2017-02-18T04:31:19.989Z,0
2017-02-18T04:32:19.995Z,0
2017-02-18T04:33:20.002Z,0
2017-02-18T04:34:19.484Z,0
2017-02-18T04:35:20.003Z,0
2017-02-18T04:36:19.543Z,0
2017-02-18T04:37:19.979Z,0
2017-02-18T04:38:19.972Z,0
2017-02-18T04:39:20.018Z,0
2017-02-18T04:40:20.016Z,0
2017-02-18T04:41:20.017Z,0
2017-02-18T04:42:19.982Z,0
2017-02-18T04:43:19.587Z,0
2017-02-18T04:44:19.612Z,0
2017-02-18T04:45:20.014Z,0
2017-02-18T04:46:19.718Z,0
2017-02-18T04:47:19.733Z,0
2017-02-18T04:48:19.472Z,0
2017-02-18T04:49:19.676Z,0
2017-02-18T04:50:19.698Z,0
2017-02-18T04:51:20.094Z,0
2017-02-18T04:52:19.713Z,0
2017-02-18T04:53:19.729Z,0
2017-02-18T04:54:19.718Z,0
2017-02-18T04:55:19.739Z,0
2017-02-18T04:56:20.121Z,0
2017-02-18T04:57:19.759Z,0
2017-02-18T04:58:19.766Z,0
2017-02-18T04:59:20.194Z,0
2017-02-18T05:00:19.818Z,0
2017-02-18T05:01:20.331Z,0
2017-02-18T05:02:19.831Z,0
2017-02-18T05:03:20.326Z,0
2017-02-18T05:04:20.326Z,0
2017-02-18T05:05:19.873Z,0
2017-02-18T05:06:20.343Z,0
2017-02-18T05:07:19.889Z,0
2017-02-18T05:08:20.367Z,0
2017-02-18T05:09:20.367Z,0
2017-02-18T05:10:20.359Z,0
2017-02-18T05:11:20.377Z,0
2017-02-18T05:12:19.989Z,0
2017-02-18T05:13:19.979Z,0
2017-02-18T05:14:19.985Z,0
2017-02-18T05:15:20.011Z,0
2017-02-18T05:16:20.012Z,0
2017-02-18T05:17:20.482Z,0
2017-02-18T05:18:19.662Z,0
2017-02-18T05:19:20.087Z,0
2017-02-18T05:20:19.681Z,0
2017-02-18T05:21:20.504Z,0
2017-02-18T05:22:20.100Z,0
2017-02-18T05:23:20.523Z,0
2017-02-18T05:24:20.132Z,0
2017-02-18T05:25:20.186Z,0
2017-02-18T05:26:20.673Z,0
2017-02-18T05:27:20.683Z,0
2017-02-18T05:28:20.270Z,0
2017-02-18T05:29:20.295Z,0
2017-02-18T05:30:20.851Z,0
2017-02-18T05:31:20.829Z,0
2017-02-18T05:32:20.835Z,0
2017-02-18T05:33:20.448Z,0
2017-02-18T05:34:20.843Z,0
2017-02-18T05:35:20.451Z,0
2017-02-18T05:36:20.886Z,0
2017-02-18T05:37:20.481Z,0
2017-02-18T05:38:20.877Z,0
2017-02-18T05:39:20.495Z,0
2017-02-18T05:40:20.890Z,0
2017-02-18T05:41:20.950Z,0
2017-02-18T05:42:20.938Z,0
2017-02-18T05:43:20.962Z,4
2017-02-18T05:44:20.993Z,4
2017-02-18T05:45:20.527Z,4
2017-02-18T05:46:20.999Z,4
2017-02-18T05:47:20.971Z,4
2017-02-18T05:48:20.576Z,4
2017-02-18T05:49:20.592Z,4
2017-02-18T05:50:21.012Z,4
2017-02-18T05:51:21.019Z,4
2017-02-18T05:52:21.024Z,4
2017-02-18T05:53:21.025Z,4
2017-02-18T05:54:20.598Z,4
2017-02-18T05:55:21.003Z,4
2017-02-18T05:56:20.627Z,4
2017-02-18T05:57:21.027Z,0
2017-02-18T05:58:21.032Z,0
2017-02-18T05:59:21.016Z,4
2017-02-18T06:00:21.027Z,4
2017-02-18T06:01:21.055Z,4
2017-02-18T06:02:21.063Z,4
2017-02-18T06:03:21.096Z,4
2017-02-18T06:04:21.085Z,4
2017-02-18T06:05:21.096Z,4
2017-02-18T06:06:21.120Z,4
2017-02-18T06:07:21.137Z,4
2017-02-18T06:08:21.202Z,4
2017-02-18T06:09:20.758Z,8
2017-02-18T06:10:21.146Z,4
2017-02-18T06:11:21.179Z,4
2017-02-18T06:12:21.200Z,8
2017-02-18T06:13:21.211Z,8
2017-02-18T06:14:21.200Z,8
2017-02-18T06:15:21.253Z,8
2017-02-18T06:16:21.258Z,8
2017-02-18T06:17:21.278Z,8
2017-02-18T06:18:21.367Z,8
2017-02-18T06:19:20.984Z,8
2017-02-18T06:20:21.303Z,12
2017-02-18T06:21:21.329Z,12
2017-02-18T06:22:21.322Z,12
2017-02-18T06:23:21.402Z,16
2017-02-18T06:24:21.034Z,12
2017-02-18T06:25:21.065Z,12
2017-02-18T06:26:21.517Z,16
2017-02-18T06:27:21.391Z,16
2017-02-18T06:28:21.437Z,20
2017-02-18T06:29:21.069Z,16
2017-02-18T06:30:21.535Z,24
2017-02-18T06:31:20.712Z,20
2017-02-18T06:32:21.181Z,20
2017-02-18T06:33:21.216Z,28
2017-02-18T06:34:21.230Z,28
2017-02-18T06:35:21.604Z,28
2017-02-18T06:36:20.974Z,36
2017-02-18T06:37:20.729Z,40
2017-02-18T06:38:21.291Z,44
2017-02-18T06:39:21.152Z,36
2017-02-18T06:40:21.231Z,40
2017-02-18T06:41:21.246Z,40
2017-02-18T06:42:21.607Z,48
2017-02-18T06:43:21.606Z,56
2017-02-18T06:44:21.843Z,52
2017-02-18T06:45:20.979Z,56
2017-02-18T06:46:21.275Z,44
2017-02-18T06:47:21.272Z,56
2017-02-18T06:48:21.732Z,72
2017-02-18T06:49:21.688Z,80
2017-02-18T06:50:21.711Z,72
2017-02-18T06:51:21.339Z,60
2017-02-18T06:52:21.730Z,72
2017-02-18T06:53:21.746Z,80
2017-02-18T06:54:21.752Z,84
2017-02-18T06:55:21.770Z,88
2017-02-18T06:56:21.790Z,92
2017-02-18T06:57:21.409Z,100
2017-02-18T06:58:21.831Z,100
2017-02-18T06:59:21.837Z,96
2017-02-18T07:00:21.844Z,96
2017-02-18T07:01:21.882Z,100
2017-02-18T07:02:21.857Z,104
2017-02-18T07:03:21.899Z,108
2017-02-18T07:04:21.931Z,112
2017-02-18T07:05:21.896Z,112
2017-02-18T07:06:21.942Z,112
2017-02-18T07:07:21.963Z,116
2017-02-18T07:08:21.986Z,120
2017-02-18T07:09:21.969Z,124
2017-02-18T07:10:21.978Z,124
2017-02-18T07:11:21.606Z,132
2017-02-18T07:12:21.624Z,136
2017-02-18T07:13:22.017Z,136
2017-02-18T07:14:22.051Z,136
2017-02-18T07:15:22.056Z,140
2017-02-18T07:16:22.058Z,148
2017-02-18T07:17:21.645Z,160
2017-02-18T07:18:21.910Z,156
2017-02-18T07:19:22.345Z,144
2017-02-18T07:20:22.275Z,132
2017-02-18T07:21:21.956Z,140
2017-02-18T07:22:21.435Z,136
2017-02-18T07:23:21.982Z,136
2017-02-18T07:24:22.285Z,124
2017-02-18T07:25:21.832Z,120
2017-02-18T07:26:21.834Z,124
2017-02-18T07:27:21.886Z,128
2017-02-18T07:28:21.858Z,140
2017-02-18T07:29:21.891Z,152
2017-02-18T07:30:22.247Z,164
2017-02-18T07:31:21.909Z,172
2017-02-18T07:32:21.962Z,172
2017-02-18T07:33:22.330Z,172
2017-02-18T07:34:22.476Z,172
2017-02-18T07:35:22.088Z,180
2017-02-18T07:36:21.576Z,188
2017-02-18T07:37:22.000Z,188
2017-02-18T07:38:22.379Z,180
2017-02-18T07:39:22.037Z,172
2017-02-18T07:40:22.044Z,176
2017-02-18T07:41:22.430Z,188
2017-02-18T07:42:21.659Z,192
2017-02-18T07:43:22.061Z,188
2017-02-18T07:44:21.725Z,184
2017-02-18T07:45:22.108Z,188
2017-02-18T07:46:22.224Z,184
2017-02-18T07:47:22.128Z,180
2017-02-18T07:48:22.533Z,188
2017-02-18T07:49:22.520Z,196
2017-02-18T07:50:22.550Z,196
2017-02-18T07:51:22.206Z,196
2017-02-18T07:52:22.215Z,200
2017-02-18T07:53:22.589Z,216
2017-02-18T07:54:22.579Z,220
2017-02-18T07:55:22.611Z,220
2017-02-18T07:56:22.242Z,212
2017-02-18T07:57:22.259Z,216
2017-02-18T07:58:22.648Z,228
2017-02-18T07:59:22.564Z,236
2017-02-18T08:00:22.323Z,232
2017-02-18T08:01:22.721Z,228
2017-02-18T08:02:22.740Z,244
2017-02-18T08:03:22.732Z,248
2017-02-18T08:04:22.898Z,248
2017-02-18T08:05:22.391Z,252
2017-02-18T08:06:22.409Z,268
2017-02-18T08:07:22.413Z,276
2017-02-18T08:08:22.031Z,292
2017-02-18T08:09:22.825Z,284
2017-02-18T08:10:22.867Z,276
2017-02-18T08:11:22.852Z,296
2017-02-18T08:12:22.483Z,292
2017-02-18T08:13:22.870Z,296
2017-02-18T08:14:22.895Z,320
2017-02-18T08:15:22.925Z,340
2017-02-18T08:16:22.890Z,384
2017-02-18T08:17:22.901Z,376
2017-02-18T08:18:22.957Z,392
2017-02-18T08:19:22.961Z,404
2017-02-18T08:20:22.928Z,404
2017-02-18T08:21:22.956Z,420
2017-02-18T08:22:22.967Z,372
2017-02-18T08:23:23.011Z,364
2017-02-18T08:24:23.002Z,380
2017-02-18T08:25:23.008Z,408
2017-02-18T08:26:23.045Z,424
2017-02-18T08:27:23.027Z,424
2017-02-18T08:28:23.067Z,444
2017-02-18T08:29:23.086Z,448
2017-02-18T08:30:23.101Z,496
2017-02-18T08:31:23.106Z,520
2017-02-18T08:32:23.111Z,532
2017-02-18T08:33:23.117Z,516
2017-02-18T08:34:23.139Z,524
2017-02-18T08:35:22.977Z,532
2017-02-18T08:36:23.189Z,520
2017-02-18T08:37:22.820Z,532
2017-02-18T08:38:22.424Z,520
2017-02-18T08:39:22.843Z,524
2017-02-18T08:40:22.925Z,500
2017-02-18T08:41:23.270Z,496
2017-02-18T08:42:22.974Z,504
2017-02-18T08:43:23.375Z,500
2017-02-18T08:44:23.431Z,540
2017-02-18T08:45:22.954Z,540
2017-02-18T08:46:23.335Z,536
2017-02-18T08:47:22.940Z,568
2017-02-18T08:48:22.960Z,616
2017-02-18T08:49:23.002Z,588
2017-02-18T08:50:23.093Z,612
2017-02-18T08:51:23.220Z,612
2017-02-18T08:52:23.623Z,592
2017-02-18T08:53:23.212Z,600
2017-02-18T08:54:23.097Z,608
2017-02-18T08:55:23.469Z,564
2017-02-18T08:56:23.109Z,576
2017-02-18T08:57:23.490Z,560
2017-02-18T08:58:23.511Z,588
2017-02-18T08:59:23.514Z,632
2017-02-18T09:00:23.380Z,680
2017-02-18T09:01:23.211Z,712
2017-02-18T09:02:23.647Z,768
2017-02-18T09:03:23.744Z,868
2017-02-18T09:04:23.804Z,888
2017-02-18T09:05:23.761Z,836
2017-02-18T09:06:22.956Z,732
2017-02-18T09:07:23.777Z,688
2017-02-18T09:08:23.389Z,672
2017-02-18T09:09:23.775Z,640
2017-02-18T09:10:23.761Z,620
2017-02-18T09:11:23.752Z,592
2017-02-18T09:12:23.754Z,552
2017-02-18T09:13:23.747Z,524
2017-02-18T09:14:23.747Z,508
2017-02-18T09:15:23.796Z,544
2017-02-18T09:16:23.824Z,524
2017-02-18T09:17:23.818Z,524
2017-02-18T09:18:23.843Z,528
2017-02-18T09:19:23.856Z,532
2017-02-18T09:20:23.836Z,544
2017-02-18T09:21:23.827Z,536
2017-02-18T09:22:23.784Z,536
2017-02-18T09:23:23.938Z,524
2017-02-18T09:24:23.885Z,536
2017-02-18T09:25:23.849Z,544
2017-02-18T09:26:23.858Z,556
2017-02-18T09:27:23.467Z,576
2017-02-18T09:28:23.894Z,600
2017-02-18T09:29:23.897Z,584
2017-02-18T09:30:23.906Z,588
2017-02-18T09:31:23.970Z,584
2017-02-18T09:32:23.552Z,568
2017-02-18T09:33:24.037Z,556
2017-02-18T09:34:23.990Z,536
2017-02-18T09:35:23.984Z,516
2017-02-18T09:36:23.999Z,544
2017-02-18T09:37:24.012Z,572
2017-02-18T09:38:24.050Z,580
2017-02-18T09:39:24.047Z,544
2017-02-18T09:40:24.088Z,540
2017-02-18T09:41:24.073Z,560
2017-02-18T09:42:24.113Z,568
2017-02-18T09:43:24.096Z,592
2017-02-18T09:44:24.141Z,588
2017-02-18T09:45:24.131Z,576
2017-02-18T09:46:24.166Z,548
2017-02-18T09:47:24.143Z,536
2017-02-18T09:48:24.169Z,552
2017-02-18T09:49:24.193Z,576
2017-02-18T09:50:24.207Z,568
2017-02-18T09:51:24.212Z,548
2017-02-18T09:52:23.845Z,564
2017-02-18T09:53:24.262Z,576
2017-02-18T09:54:24.360Z,592
2017-02-18T09:55:23.896Z,608
2017-02-18T09:56:24.293Z,636
2017-02-18T09:57:24.331Z,652
2017-02-18T09:58:24.307Z,680
2017-02-18T09:59:24.363Z,688
2017-02-18T10:00:24.362Z,672
2017-02-18T10:01:24.340Z,660
2017-02-18T10:02:24.373Z,668
2017-02-18T10:03:23.973Z,692
2017-02-18T10:04:24.412Z,708
2017-02-18T10:05:24.403Z,696
2017-02-18T10:06:24.457Z,684
2017-02-18T10:07:24.470Z,680
2017-02-18T10:08:24.452Z,700
2017-02-18T10:09:24.469Z,756
2017-02-18T10:10:24.489Z,820
2017-02-18T10:11:24.484Z,940
2017-02-18T10:12:24.513Z,1044
2017-02-18T10:13:24.124Z,1128
2017-02-18T10:14:24.144Z,1152
2017-02-18T10:15:24.562Z,1232
2017-02-18T10:16:24.568Z,1240
2017-02-18T10:17:24.600Z,1284
2017-02-18T10:18:24.587Z,1360
2017-02-18T10:19:39.136Z,1408
2017-02-18T10:20:24.277Z,1436
2017-02-18T10:21:23.914Z,1496
2017-02-18T10:22:24.705Z,1512
2017-02-18T10:23:24.694Z,1448
2017-02-18T10:24:24.771Z,1456
2017-02-18T10:25:24.724Z,1568
2017-02-18T10:26:24.709Z,1720
2017-02-18T10:27:24.704Z,1700
2017-02-18T10:28:24.741Z,1640
2017-02-18T10:29:24.791Z,1656
2017-02-18T10:30:24.763Z,1680
2017-02-18T10:31:24.782Z,1672
2017-02-18T10:32:24.409Z,1628
2017-02-18T10:33:24.840Z,1560
2017-02-18T10:34:24.836Z,1584
2017-02-18T10:35:24.841Z,1592
2017-02-18T10:36:24.460Z,1628
2017-02-18T10:37:24.860Z,1584
2017-02-18T10:38:24.877Z,1608
2017-02-18T10:39:24.923Z,1788
2017-02-18T10:40:24.910Z,1768
2017-02-18T10:41:24.922Z,1732
2017-02-18T10:42:24.929Z,1720
2017-02-18T10:43:24.980Z,1640
2017-02-18T10:44:24.964Z,1508
2017-02-18T10:45:24.983Z,1624
2017-02-18T10:46:24.608Z,1748
2017-02-18T10:47:25.006Z,1876
2017-02-18T10:48:25.042Z,1976
2017-02-18T10:49:25.052Z,2012
2017-02-18T10:50:25.077Z,2040
2017-02-18T10:51:25.062Z,1856
2017-02-18T10:52:25.094Z,1432
2017-02-18T10:53:25.088Z,1056
2017-02-18T10:54:25.116Z,724
2017-02-18T10:55:24.769Z,808
2017-02-18T10:56:24.802Z,900
2017-02-18T10:57:24.775Z,744
2017-02-18T10:58:24.841Z,888
2017-02-18T10:59:25.211Z,1012
2017-02-18T11:00:24.961Z,960
2017-02-18T11:01:25.269Z,988
2017-02-18T11:02:25.246Z,1044
2017-02-18T11:03:24.497Z,1096
2017-02-18T11:04:24.887Z,1088
2017-02-18T11:05:25.528Z,1024
2017-02-18T11:06:25.051Z,936
2017-02-18T11:07:24.693Z,852
2017-02-18T11:08:25.473Z,820
2017-02-18T11:09:25.557Z,864
2017-02-18T11:10:25.465Z,808
2017-02-18T11:11:24.879Z,792
2017-02-18T11:12:25.114Z,788
2017-02-18T11:13:25.385Z,776
2017-02-18T11:14:25.041Z,808
2017-02-18T11:15:24.661Z,832
2017-02-18T11:16:25.434Z,872
2017-02-18T11:17:25.083Z,884
2017-02-18T11:18:25.485Z,880
2017-02-18T11:19:25.161Z,856
2017-02-18T11:20:25.516Z,844
2017-02-18T11:21:25.510Z,852
2017-02-18T11:22:25.525Z,860
2017-02-18T11:23:25.543Z,916
2017-02-18T11:24:25.564Z,920
2017-02-18T11:25:25.576Z,924
2017-02-18T11:26:25.582Z,900
2017-02-18T11:27:25.571Z,924
2017-02-18T11:28:25.623Z,992
2017-02-18T11:29:25.655Z,1020
2017-02-18T11:30:25.652Z,980
2017-02-18T11:31:25.662Z,988
2017-02-18T11:32:25.668Z,976
2017-02-18T11:33:25.698Z,968
2017-02-18T11:34:25.700Z,932
2017-02-18T11:35:25.729Z,876
2017-02-18T11:36:25.715Z,884
2017-02-18T11:37:25.751Z,892
2017-02-18T11:38:25.792Z,880
2017-02-18T11:39:25.769Z,900
2017-02-18T11:40:25.777Z,892
2017-02-18T11:41:25.815Z,896
2017-02-18T11:42:25.876Z,924
2017-02-18T11:43:25.835Z,928
2017-02-18T11:44:25.056Z,948
2017-02-18T11:45:25.882Z,936
2017-02-18T11:46:25.902Z,880
2017-02-18T11:47:25.891Z,864
2017-02-18T11:48:25.892Z,840
2017-02-18T11:49:25.512Z,808
2017-02-18T11:50:25.954Z,780
2017-02-18T11:51:25.952Z,760
2017-02-18T11:52:25.968Z,744
2017-02-18T11:53:25.962Z,772
2017-02-18T11:54:25.997Z,808
2017-02-18T11:55:26.002Z,796
2017-02-18T11:56:26.001Z,800
2017-02-18T11:57:26.065Z,864
2017-02-18T11:58:26.089Z,908
2017-02-18T11:59:25.690Z,928
2017-02-18T12:00:25.752Z,924
2017-02-18T12:01:26.207Z,884
2017-02-18T12:02:25.962Z,820
2017-02-18T12:03:25.360Z,796
2017-02-18T12:04:25.853Z,800
2017-02-18T12:05:26.159Z,784
2017-02-18T12:06:25.932Z,808
2017-02-18T12:07:26.182Z,848
2017-02-18T12:08:26.226Z,880
2017-02-18T12:09:25.824Z,936
2017-02-18T12:10:25.937Z,912
2017-02-18T12:11:26.245Z,904
2017-02-18T12:12:26.269Z,884
2017-02-18T12:13:26.270Z,848
2017-02-18T12:14:26.304Z,832
2017-02-18T12:15:26.313Z,808
2017-02-18T12:16:26.322Z,816
2017-02-18T12:17:26.339Z,844
2017-02-18T12:18:26.340Z,944
2017-02-18T12:19:26.379Z,1072
2017-02-18T12:20:25.991Z,1088
2017-02-18T12:21:26.391Z,1000
2017-02-18T12:22:26.039Z,1040
2017-02-18T12:23:26.439Z,1024
2017-02-18T12:24:26.470Z,956
2017-02-18T12:25:26.444Z,968
2017-02-18T12:26:26.488Z,976
2017-02-18T12:27:26.487Z,1016
2017-02-18T12:28:26.504Z,1068
2017-02-18T12:29:26.512Z,1080
2017-02-18T12:30:26.536Z,1036
2017-02-18T12:31:26.537Z,1000
2017-02-18T12:32:26.567Z,980
2017-02-18T12:33:26.232Z,988
2017-02-18T12:34:26.586Z,988
2017-02-18T12:35:26.224Z,1012
2017-02-18T12:36:26.676Z,1028
2017-02-18T12:37:26.646Z,1072
2017-02-18T12:38:26.615Z,1044
2017-02-18T12:39:26.666Z,896
2017-02-18T12:40:26.675Z,788
2017-02-18T12:41:26.675Z,684
2017-02-18T12:42:26.527Z,556
2017-02-18T12:43:26.381Z,680
2017-02-18T12:44:25.957Z,716
2017-02-18T12:45:25.973Z,852
2017-02-18T12:46:26.107Z,648
2017-02-18T12:47:26.094Z,768
2017-02-18T12:48:26.849Z,788
2017-02-18T12:49:26.023Z,808
2017-02-18T12:50:26.087Z,828
2017-02-18T12:51:26.832Z,800
2017-02-18T12:52:26.873Z,780
2017-02-18T12:53:26.882Z,784
2017-02-18T12:54:26.893Z,820
2017-02-18T12:55:26.918Z,780
2017-02-18T12:56:26.916Z,764
2017-02-18T12:57:26.932Z,796
2017-02-18T12:58:26.943Z,840
2017-02-18T12:59:26.950Z,844
2017-02-18T13:00:26.970Z,832
2017-02-18T13:01:26.984Z,880
2017-02-18T13:02:27.006Z,872
2017-02-18T13:03:27.003Z,832
2017-02-18T13:04:27.054Z,840
2017-02-18T13:05:27.054Z,876
2017-02-18T13:06:27.076Z,832
2017-02-18T13:07:27.115Z,836
2017-02-18T13:08:27.087Z,848
2017-02-18T13:09:41.204Z,824
2017-02-18T13:10:26.352Z,760
2017-02-18T13:11:27.161Z,812
2017-02-18T13:12:27.155Z,896
2017-02-18T13:13:26.403Z,880
2017-02-18T13:14:27.197Z,772
2017-02-18T13:15:27.209Z,744
2017-02-18T13:16:27.198Z,788
2017-02-18T13:17:27.226Z,792
2017-02-18T13:18:27.244Z,768
2017-02-18T13:19:27.258Z,724
2017-02-18T13:20:27.285Z,764
2017-02-18T13:21:27.287Z,776
2017-02-18T13:22:27.293Z,724
2017-02-18T13:23:27.352Z,792
2017-02-18T13:24:26.917Z,824
2017-02-18T13:25:27.359Z,820
2017-02-18T13:26:27.351Z,864
2017-02-18T13:27:27.435Z,836
2017-02-18T13:28:27.391Z,820
2017-02-18T13:29:27.391Z,820
2017-02-18T13:30:27.427Z,852
2017-02-18T13:31:27.434Z,864
2017-02-18T13:32:27.453Z,876
2017-02-18T13:33:27.569Z,908
2017-02-18T13:34:27.479Z,860
2017-02-18T13:35:27.582Z,848
2017-02-18T13:36:27.495Z,888
2017-02-18T13:37:27.606Z,876
2017-02-18T13:38:27.619Z,816
2017-02-18T13:39:27.624Z,840
2017-02-18T13:40:27.636Z,816
2017-02-18T13:41:27.185Z,792
2017-02-18T13:42:27.186Z,760
2017-02-18T13:43:27.951Z,580
2017-02-18T13:44:27.303Z,544
2017-02-18T13:45:26.982Z,720
2017-02-18T13:46:27.679Z,784
2017-02-18T13:47:27.325Z,780
2017-02-18T13:48:27.820Z,764
2017-02-18T13:49:27.349Z,764
2017-02-18T13:50:27.343Z,756
2017-02-18T13:51:26.972Z,792
2017-02-18T13:52:27.385Z,800
2017-02-18T13:53:27.006Z,760
2017-02-18T13:54:27.423Z,652
2017-02-18T13:55:27.492Z,684
2017-02-18T13:56:27.470Z,756
2017-02-18T13:57:27.059Z,772
2017-02-18T13:58:27.082Z,728
2017-02-18T13:59:27.532Z,620
2017-02-18T14:00:27.488Z,556
2017-02-18T14:01:27.625Z,700
2017-02-18T14:02:27.161Z,704
2017-02-18T14:03:27.173Z,680
2017-02-18T14:04:27.948Z,716
2017-02-18T14:05:27.563Z,668
2017-02-18T14:06:27.562Z,604
2017-02-18T14:07:27.611Z,588
2017-02-18T14:08:27.592Z,568
2017-02-18T14:09:27.396Z,612
2017-02-18T14:10:27.242Z,628
2017-02-18T14:11:27.257Z,540